createdAt,value
2019-05-07T00:02:32.870Z,96337.05
2019-05-07T00:05:22.905Z,96333.27
2019-05-07T00:08:07.309Z,96336.05
2019-05-07T00:10:57.069Z,96337.07
2019-05-07T00:13:39.419Z,96335.52
2019-05-07T00:16:22.410Z,96326.12
2019-05-07T00:22:16.079Z,96321.69
2019-05-07T00:24:58.698Z,96318.02
2019-05-07T00:27:29.334Z,96305.77
2019-05-07T00:30:19.034Z,96305.53
2019-05-07T00:33:02.802Z,96307.70
2019-05-07T00:36:12.387Z,96301.53
2019-05-07T00:45:26.065Z,96301.53
2019-05-07T00:48:08.516Z,96296.40
2019-05-07T00:53:52.230Z,96299.31
2019-05-07T00:56:42.844Z,96303.13
2019-05-07T00:59:26.148Z,96294.97
2019-05-07T01:02:16.004Z,96278.02
2019-05-07T01:05:05.878Z,96270.16
2019-05-07T01:07:55.618Z,96288.00
2019-05-07T01:10:38.336Z,96258.14
2019-05-07T01:13:28.072Z,96281.63
2019-05-07T01:16:12.897Z,96265.14
2019-05-07T01:19:02.518Z,96257.55
2019-05-07T01:21:44.658Z,96270.19
2019-05-07T01:24:34.386Z,96251.94
2019-05-07T01:27:16.776Z,96267.44
2019-05-07T01:36:36.220Z,96264.91
2019-05-07T01:39:18.243Z,96255.17
2019-05-07T01:42:08.313Z,96254.94
2019-05-07T01:44:58.164Z,96237.22
2019-05-07T01:47:42.498Z,96245.30
2019-05-07T01:50:33.208Z,96252.24
2019-05-07T01:53:17.671Z,96247.45
2019-05-07T01:56:07.404Z,96246.66
2019-05-07T01:58:49.357Z,96243.72
2019-05-07T02:01:39.055Z,96248.56
2019-05-07T02:04:42.637Z,96248.47
2019-05-07T02:16:46.055Z,96249.38
2019-05-07T02:19:35.787Z,96237.48
2019-05-07T02:22:17.905Z,96240.62
2019-05-07T02:25:07.865Z,96232.89
2019-05-07T02:27:52.635Z,96235.45
2019-05-07T02:30:44.524Z,96229.05
2019-05-07T02:33:25.615Z,96238.37
2019-05-07T02:36:15.349Z,96207.53
2019-05-07T02:39:19.981Z,96225.60
2019-05-07T02:42:09.747Z,96238.70
2019-05-07T02:45:13.331Z,96234.91
2019-05-07T02:48:03.647Z,96221.89
2019-05-07T02:54:15.209Z,96207.41
2019-05-07T02:56:58.875Z,96218.42
2019-05-07T02:59:43.969Z,96217.16
2019-05-07T03:02:33.329Z,96214.72
2019-05-07T03:05:17.417Z,96214.26
2019-05-07T03:08:07.187Z,96218.86
2019-05-07T03:11:15.734Z,96219.28
2019-05-07T03:14:05.785Z,96192.69
2019-05-07T03:16:49.666Z,96230.30
2019-05-07T03:22:43.009Z,96221.55
2019-05-07T03:25:54.223Z,96196.63
2019-05-07T03:28:55.228Z,96219.64
2019-05-07T03:32:06.120Z,96221.88
2019-05-07T03:38:05.345Z,96196.96
2019-05-07T03:40:48.506Z,96217.73
2019-05-07T03:43:32.564Z,96218.73
2019-05-07T03:46:23.446Z,96206.51
2019-05-07T03:49:08.310Z,96205.61
2019-05-07T03:57:23.717Z,96208.87
2019-05-07T04:00:05.601Z,96207.98
2019-05-07T04:05:59.247Z,96202.25
2019-05-07T04:08:43.259Z,96189.70
2019-05-07T04:11:33.692Z,96214.82
2019-05-07T04:14:17.377Z,96227.13
2019-05-07T04:17:21.814Z,96227.73
2019-05-07T04:19:53.265Z,96224.70
2019-05-07T04:22:43.589Z,96227.15
2019-05-07T04:28:47.728Z,96230.17
2019-05-07T04:40:49.053Z,96246.30
2019-05-07T04:43:38.848Z,96242.66
2019-05-07T04:46:28.702Z,96207.73
2019-05-07T04:49:18.476Z,96238.22
2019-05-07T04:55:05.755Z,96239.80
2019-05-07T04:57:55.466Z,96212.75
2019-05-07T05:00:38.204Z,96233.78
2019-05-07T05:03:30.306Z,96233.68
2019-05-07T05:06:13.800Z,96221.33
2019-05-07T05:12:06.492Z,96242.48
2019-05-07T05:15:15.417Z,96249.02
2019-05-07T05:17:57.905Z,96246.20
2019-05-07T05:21:06.421Z,96255.86
2019-05-07T05:23:55.905Z,96265.35
2019-05-07T05:26:45.695Z,96260.95
2019-05-07T05:29:28.064Z,96257.00
2019-05-07T05:32:17.826Z,96259.97
2019-05-07T05:35:03.330Z,96260.40
2019-05-07T05:37:53.330Z,96243.68
2019-05-07T05:40:36.185Z,96265.05
2019-05-07T05:43:44.761Z,96269.62
2019-05-07T05:46:28.475Z,96260.89
2019-05-07T05:49:18.211Z,96257.70
2019-05-07T05:52:21.558Z,96266.08
2019-05-07T06:01:46.514Z,96270.89
2019-05-07T06:07:38.751Z,96248.75
2019-05-07T06:10:47.351Z,96277.19
2019-05-07T06:23:13.205Z,96238.09
2019-05-07T06:25:57.290Z,96267.96
2019-05-07T06:28:47.067Z,96267.70
2019-05-07T06:32:14.816Z,96267.65
2019-05-07T06:34:57.592Z,96264.31
2019-05-07T06:38:02.895Z,96261.22
2019-05-07T06:46:53.919Z,96245.44
2019-05-07T06:49:43.660Z,96262.12
2019-05-07T06:52:26.066Z,96261.89
2019-05-07T06:55:15.814Z,96264.01
2019-05-07T06:57:59.130Z,96268.92
2019-05-07T07:01:07.658Z,96269.69
2019-05-07T07:04:09.736Z,96264.21
2019-05-07T07:07:27.333Z,96261.89
2019-05-07T07:10:25.445Z,96263.88
2019-05-07T07:13:15.170Z,96257.88
2019-05-07T07:15:57.625Z,96250.82
2019-05-07T07:18:52.073Z,96245.34
2019-05-07T07:21:32.716Z,96247.32
2019-05-07T07:24:22.989Z,96234.09
2019-05-07T07:27:07.123Z,96243.37
2019-05-07T07:30:15.748Z,96239.51
2019-05-07T07:32:59.440Z,96236.88
2019-05-07T07:35:49.238Z,96241.08
2019-05-07T07:38:35.441Z,96235.30
2019-05-07T07:41:43.957Z,96235.36
2019-05-07T07:44:26.325Z,96214.25
2019-05-07T07:47:36.079Z,96212.16
2019-05-07T07:50:25.915Z,96232.64
2019-05-07T07:53:15.651Z,96229.45
2019-05-07T07:56:24.244Z,96232.83
2019-05-07T08:05:12.542Z,96217.96
2019-05-07T08:08:21.935Z,96215.44
2019-05-07T08:11:05.457Z,96210.05
2019-05-07T08:13:55.202Z,96201.88
2019-05-07T08:16:38.091Z,96202.67
2019-05-07T08:19:27.851Z,96215.94
2019-05-07T08:22:12.033Z,96219.24
2019-05-07T08:28:05.060Z,96215.39
2019-05-07T08:36:58.917Z,96183.20
2019-05-07T08:39:42.930Z,96199.17
2019-05-07T08:42:32.751Z,96205.21
2019-05-07T08:45:43.216Z,96200.25
2019-05-07T08:51:32.705Z,96185.38
2019-05-07T08:54:22.777Z,96187.48
2019-05-07T08:57:05.623Z,96169.88
2019-05-07T09:00:00.485Z,96173.63
2019-05-07T09:02:41.916Z,96169.67
2019-05-07T09:05:32.327Z,96175.36
2019-05-07T09:08:15.725Z,96168.34
2019-05-07T09:11:05.457Z,96167.70
2019-05-07T09:13:55.239Z,96177.69
2019-05-07T09:16:45.024Z,96154.87
2019-05-07T09:19:47.305Z,96161.66
2019-05-07T09:22:18.753Z,96155.27
2019-05-07T09:25:09.068Z,96143.81
2019-05-07T09:27:58.833Z,96143.02
2019-05-07T09:30:58.571Z,96131.77
2019-05-07T09:33:52.117Z,96128.84
2019-05-07T09:40:03.461Z,96117.16
2019-05-07T09:42:46.169Z,96116.54
2019-05-07T09:45:30.289Z,96105.64
2019-05-07T09:48:33.863Z,96111.69
2019-05-07T09:51:16.042Z,96096.28
2019-05-07T09:54:06.168Z,96102.72
2019-05-07T09:56:55.971Z,96099.59
2019-05-07T10:02:42.675Z,96090.27
2019-05-07T10:05:32.450Z,96094.75
2019-05-07T10:08:14.909Z,96083.20
2019-05-07T10:10:57.097Z,96086.96
2019-05-07T10:14:05.661Z,96089.85
2019-05-07T10:17:14.219Z,96083.23
2019-05-07T10:19:56.953Z,96089.19
2019-05-07T10:26:12.197Z,96092.73
2019-05-07T10:28:56.150Z,96092.91
2019-05-07T10:31:45.871Z,96077.62
2019-05-07T10:34:27.870Z,96073.77
2019-05-07T10:37:18.155Z,96073.02
2019-05-07T10:40:02.872Z,96074.66
2019-05-07T10:42:52.150Z,96077.17
2019-05-07T10:51:59.730Z,96054.43
2019-05-07T10:54:56.531Z,96061.53
2019-05-07T10:57:27.866Z,96031.44
2019-05-07T11:00:30.304Z,96042.89
2019-05-07T11:03:12.860Z,96048.94
2019-05-07T11:06:02.638Z,96017.88
2019-05-07T11:08:44.936Z,96043.28
2019-05-07T11:11:34.704Z,96030.48
2019-05-07T11:14:17.429Z,96035.96
2019-05-07T11:17:25.958Z,96028.11
2019-05-07T11:20:09.410Z,96032.38
2019-05-07T11:22:59.136Z,96028.73
2019-05-07T11:25:48.844Z,96007.16
2019-05-07T11:28:32.421Z,96004.27
2019-05-07T11:31:22.440Z,95995.59
2019-05-07T11:34:13.905Z,96001.14
2019-05-07T11:36:56.082Z,95998.14
2019-05-07T11:39:45.858Z,95990.09
2019-05-07T11:42:55.495Z,95970.61
2019-05-07T11:49:08.569Z,95971.99
2019-05-07T11:55:15.126Z,96002.30
2019-05-07T11:58:04.846Z,95991.80
2019-05-07T12:00:52.202Z,95981.39
2019-05-07T12:03:42.915Z,95991.52
2019-05-07T12:06:26.337Z,95986.17
2019-05-07T12:09:16.040Z,95961.31
2019-05-07T12:11:58.508Z,95972.87
2019-05-07T12:14:48.222Z,95968.87
2019-05-07T12:17:31.685Z,95969.44
2019-05-07T12:20:21.909Z,95963.84
2019-05-07T12:23:05.354Z,95962.53
2019-05-07T12:25:55.048Z,95960.02
2019-05-07T12:35:02.258Z,95957.50
2019-05-07T12:37:52.961Z,95960.03
2019-05-07T12:40:36.637Z,95954.31
2019-05-07T12:43:26.395Z,95953.37
2019-05-07T12:46:08.650Z,95950.39
2019-05-07T12:48:58.564Z,95941.93
2019-05-07T12:52:02.150Z,95950.44
2019-05-07T12:55:11.902Z,95954.03
2019-05-07T12:57:54.847Z,95936.55
2019-05-07T13:01:03.417Z,95935.07
2019-05-07T13:04:05.094Z,95944.36
2019-05-07T13:09:54.824Z,95905.06
2019-05-07T13:12:25.453Z,95908.70
2019-05-07T13:15:34.167Z,95928.75
2019-05-07T13:18:16.611Z,95927.84
2019-05-07T13:21:06.375Z,95909.52
2019-05-07T13:23:56.249Z,95914.55
2019-05-07T13:26:46.079Z,95918.36
2019-05-07T13:29:35.846Z,95915.73
2019-05-07T13:35:29.563Z,95909.21
2019-05-07T13:38:32.298Z,95915.00
2019-05-07T13:41:34.583Z,95903.22
2019-05-07T13:44:36.107Z,95903.10
2019-05-07T13:47:44.711Z,95881.45
2019-05-07T13:50:27.023Z,95900.70
2019-05-07T13:53:16.911Z,95877.22
2019-05-07T13:55:59.319Z,95867.78
2019-05-07T13:58:49.182Z,95887.36
2019-05-07T14:04:42.584Z,95879.66
2019-05-07T14:07:26.427Z,95886.02
2019-05-07T14:10:28.011Z,95868.36
2019-05-07T14:13:14.996Z,95878.52
2019-05-07T14:16:22.206Z,95873.66
2019-05-07T14:19:04.278Z,95864.38
2019-05-07T14:22:18.393Z,95880.78
2019-05-07T14:24:57.371Z,95871.57
2019-05-07T14:27:47.235Z,95868.95
2019-05-07T14:30:37.034Z,95864.60
2019-05-07T14:33:45.652Z,95863.00
2019-05-07T14:36:42.627Z,95857.92
2019-05-07T14:39:13.374Z,95853.30
2019-05-07T14:41:43.974Z,95850.58
2019-05-07T14:47:12.956Z,95844.13
2019-05-07T14:50:02.669Z,95845.98
2019-05-07T14:52:45.782Z,95841.26
2019-05-07T14:55:35.682Z,95836.78
2019-05-07T14:58:18.465Z,95817.23
2019-05-07T15:01:08.254Z,95836.89
2019-05-07T15:03:51.694Z,95810.64
2019-05-07T15:06:41.511Z,95824.48
2019-05-07T15:09:26.786Z,95830.45
2019-05-07T15:12:16.622Z,95823.45
2019-05-07T15:15:02.029Z,95824.72
2019-05-07T15:20:58.355Z,95814.08
2019-05-07T15:23:48.658Z,95816.42
2019-05-07T15:26:32.578Z,95818.80
2019-05-07T15:29:22.388Z,95817.75
2019-05-07T15:32:09.762Z,95796.53
2019-05-07T15:34:59.488Z,95818.33
2019-05-07T15:37:32.062Z,95816.41
2019-05-07T15:40:13.977Z,95815.55
2019-05-07T15:43:03.829Z,95817.37
2019-05-07T15:45:53.561Z,95813.00
2019-05-07T15:48:43.321Z,95806.09
2019-05-07T15:51:33.035Z,95803.69
2019-05-07T15:54:15.817Z,95801.36
2019-05-07T16:03:32.113Z,95796.31
2019-05-07T16:06:15.378Z,95789.13
2019-05-07T16:12:22.861Z,95792.38
2019-05-07T16:15:33.197Z,95787.00
2019-05-07T16:18:18.583Z,95768.98
2019-05-07T16:21:08.295Z,95758.85
2019-05-07T16:23:52.339Z,95762.68
2019-05-07T16:26:42.625Z,95762.19
2019-05-07T16:29:24.622Z,95744.33
2019-05-07T16:32:14.367Z,95767.17
2019-05-07T16:34:56.680Z,95770.64
2019-05-07T16:37:46.463Z,95768.89
2019-05-07T16:40:36.248Z,95764.98
2019-05-07T16:43:26.059Z,95762.47
2019-05-07T16:51:44.195Z,95741.27
2019-05-07T16:54:31.219Z,95731.66
2019-05-07T17:00:52.776Z,95725.72
2019-05-07T17:03:42.673Z,95736.16
2019-05-07T17:06:25.416Z,95718.05
2019-05-07T17:09:15.637Z,95713.89
2019-05-07T17:15:03.334Z,95729.20
2019-05-07T17:17:59.400Z,95738.74
2019-05-07T17:20:42.971Z,95733.50
2019-05-07T17:23:43.806Z,95735.22
2019-05-07T17:26:16.718Z,95720.34
2019-05-07T17:29:06.516Z,95732.91
2019-05-07T17:31:49.350Z,95732.63
2019-05-07T17:34:39.115Z,95728.41
2019-05-07T17:37:22.555Z,95713.68
2019-05-07T17:43:14.291Z,95717.39
2019-05-07T17:46:04.029Z,95714.60
2019-05-07T17:48:46.306Z,95715.53
2019-05-07T17:51:44.134Z,95706.80
2019-05-07T17:54:26.396Z,95711.13
2019-05-07T17:57:16.110Z,95695.13
2019-05-07T17:59:58.250Z,95712.85
2019-05-07T18:03:06.742Z,95707.69
2019-05-07T18:05:49.072Z,95709.11
2019-05-07T18:08:38.817Z,95709.88
2019-05-07T18:11:24.030Z,95711.42
2019-05-07T18:14:12.550Z,95700.73
2019-05-07T18:17:14.256Z,95684.09
2019-05-07T18:23:09.971Z,95683.95
2019-05-07T18:28:53.600Z,95696.44
2019-05-07T18:32:02.232Z,95696.67
2019-05-07T18:34:52.132Z,95696.23
2019-05-07T18:37:24.564Z,95703.66
2019-05-07T18:40:14.357Z,95694.76
2019-05-07T18:42:57.012Z,95700.87
2019-05-07T18:45:46.865Z,95700.25
2019-05-07T18:48:31.294Z,95703.98
2019-05-07T18:51:21.054Z,95696.14
2019-05-07T18:54:04.682Z,95698.55
2019-05-07T18:59:42.314Z,95705.03
2019-05-07T19:02:31.832Z,95705.70
2019-05-07T19:05:14.167Z,95713.95
2019-05-07T19:08:08.088Z,95695.86
2019-05-07T19:10:55.379Z,95719.55
2019-05-07T19:13:37.714Z,95717.59
2019-05-07T19:16:40.349Z,95713.72
2019-05-07T19:19:23.069Z,95714.88
2019-05-07T19:22:12.875Z,95718.70
2019-05-07T19:24:55.745Z,95714.19
2019-05-07T19:27:45.495Z,95705.03
2019-05-07T19:30:28.129Z,95718.02
2019-05-07T19:33:17.829Z,95716.89
2019-05-07T19:36:00.776Z,95699.80
2019-05-07T19:38:52.622Z,95711.52
2019-05-07T19:41:34.679Z,95716.71
2019-05-07T19:44:24.447Z,95716.45
2019-05-07T19:47:14.164Z,95715.14
2019-05-07T19:49:56.831Z,95714.36
2019-05-07T19:52:46.665Z,95699.16
2019-05-07T19:58:53.345Z,95707.12
2019-05-07T20:04:48.845Z,95701.76
2019-05-07T20:07:38.627Z,95696.64
2019-05-07T20:10:39.826Z,95697.06
2019-05-07T20:13:31.902Z,95695.27
2019-05-07T20:16:18.047Z,95702.16
2019-05-07T20:19:07.793Z,95695.18
2019-05-07T20:21:52.239Z,95691.00
2019-05-07T20:24:41.885Z,95685.46
2019-05-07T20:27:24.387Z,95681.80
2019-05-07T20:30:14.295Z,95682.92
2019-05-07T20:32:57.215Z,95680.47
2019-05-07T20:35:47.123Z,95671.81
2019-05-07T20:38:29.255Z,95678.05
2019-05-07T20:41:19.020Z,95674.13
2019-05-07T20:44:02.890Z,95672.80
2019-05-07T20:46:53.558Z,95673.59
2019-05-07T20:49:36.707Z,95671.84
2019-05-07T20:52:26.437Z,95667.36
2019-05-07T20:55:31.007Z,95660.18
2019-05-07T20:58:19.025Z,95647.77
2019-05-07T21:01:02.917Z,95647.77
2019-05-07T21:09:42.263Z,95643.30
2019-05-07T21:12:25.566Z,95648.92
2019-05-07T21:15:15.300Z,95634.73
2019-05-07T21:17:58.931Z,95643.52
2019-05-07T21:20:48.715Z,95652.08
2019-05-07T21:23:19.385Z,95648.98
2019-05-07T21:26:09.152Z,95648.02
2019-05-07T21:28:52.792Z,95644.90
2019-05-07T21:31:43.199Z,95649.53
2019-05-07T21:34:26.447Z,95646.78
2019-05-07T21:37:16.170Z,95636.88
2019-05-07T21:39:58.740Z,95633.58
2019-05-07T21:42:48.462Z,95636.06
2019-05-07T21:45:32.739Z,95632.59
2019-05-07T21:48:22.580Z,95622.08
2019-05-07T21:51:04.462Z,95621.91
2019-05-07T21:54:13.016Z,95635.52
2019-05-07T21:57:16.896Z,95632.63
2019-05-07T22:03:23.017Z,95627.19
2019-05-07T22:06:13.020Z,95628.72
2019-05-07T22:08:55.069Z,95608.92
2019-05-07T22:11:44.818Z,95621.09
2019-05-07T22:14:35.107Z,95624.96
2019-05-07T22:17:25.477Z,95626.37
2019-05-07T22:20:15.216Z,95620.34
2019-05-07T22:23:05.030Z,95604.47
2019-05-07T22:25:54.744Z,95616.73
2019-05-07T22:28:44.558Z,95591.14
2019-05-07T22:31:53.281Z,95613.67
2019-05-07T22:34:57.602Z,95590.22
2019-05-07T22:37:47.424Z,95612.88
2019-05-07T22:40:37.456Z,95607.06
2019-05-07T22:43:27.286Z,95599.88
2019-05-07T22:46:17.083Z,95604.34
2019-05-07T22:49:06.834Z,95599.08
2019-05-07T22:51:56.649Z,95601.58
2019-05-07T22:54:46.444Z,95605.66
2019-05-07T23:03:32.295Z,95568.03
2019-05-07T23:06:23.219Z,95562.27
2019-05-07T23:09:06.636Z,95564.41
2019-05-07T23:11:37.294Z,95563.62
2019-05-07T23:14:07.960Z,95568.66
2019-05-07T23:16:38.599Z,95570.20
2019-05-07T23:19:28.548Z,95573.27
2019-05-07T23:22:18.289Z,95568.41
2019-05-07T23:28:05.232Z,95565.52
2019-05-07T23:30:55.073Z,95566.70
2019-05-07T23:33:37.055Z,95563.02
2019-05-07T23:36:26.871Z,95570.03
2019-05-07T23:39:11.938Z,95562.47
2019-05-07T23:45:09.273Z,95569.47
2019-05-07T23:47:58.994Z,95569.66
2019-05-07T23:50:41.875Z,95571.20
2019-05-07T23:53:51.917Z,95573.13
2019-05-07T23:56:34.833Z,95574.11
2019-05-07T23:59:24.677Z,95577.79
